Time;durP1;ratioP1;P1;durP2;ratioP2;P2;SDS_P1;SDS_P2;PMS_P1;PMS_P2;Temp;Humidity;BMP_temperature;BMP_pressure;BME280_temperature;BME280_humidity;BME280_pressure;Samples;Min_cycle;Max_cycle;Signal;HPM_P1;HPM_P2
2022/04/07 00:02:25;;;;;;;38.42;5.43;;;;;;;8.84;100.00;98803.56;5112094;28;20595;-26
2022/04/07 00:04:53;;;;;;;46.10;6.30;;;;;;;8.88;100.00;98796.97;5111599;28;20055;-29
2022/04/07 00:07:21;;;;;;;43.83;6.22;;;;;;;8.86;100.00;98801.25;5112085;28;20146;-28
2022/04/07 00:09:49;;;;;;;44.47;6.78;;;;;;;8.85;100.00;98783.75;5112801;28;20376;-30
2022/04/07 00:12:17;;;;;;;39.75;6.32;;;;;;;8.83;100.00;98791.63;5111441;28;20450;-30
2022/04/07 00:14:44;;;;;;;34.63;5.45;;;;;;;8.84;100.00;98798.00;5113928;28;20043;-26
2022/04/07 00:17:13;;;;;;;34.83;5.50;;;;;;;8.84;100.00;98784.09;5096937;28;20043;-27
2022/04/07 00:19:41;;;;;;;38.35;6.82;;;;;;;8.82;100.00;98791.94;5113228;28;20062;-29
2022/04/07 00:22:09;;;;;;;42.05;6.72;;;;;;;8.80;100.00;98770.03;5113476;28;20507;-26
2022/04/07 00:24:37;;;;;;;47.28;6.13;;;;;;;8.82;100.00;98773.28;5112763;28;20367;-26
2022/04/07 00:27:05;;;;;;;43.15;6.18;;;;;;;8.83;100.00;98754.66;5113321;28;20040;-27
2022/04/07 00:29:33;;;;;;;44.55;6.03;;;;;;;8.80;100.00;98755.31;5113179;28;20180;-27
2022/04/07 00:32:04;;;;;;;42.47;5.95;;;;;;;8.80;100.00;98747.78;5112699;28;20035;-27
2022/04/07 00:34:34;;;;;;;38.83;6.45;;;;;;;8.80;100.00;98744.19;5113326;28;20064;-28
2022/04/07 00:37:02;;;;;;;36.45;5.90;;;;;;;8.83;100.00;98737.97;5112693;28;20047;-34
2022/04/07 00:39:30;;;;;;;38.80;5.47;;;;;;;8.81;100.00;98746.63;5112064;27;20560;-26
2022/04/07 00:41:58;;;;;;;43.25;6.43;;;;;;;8.78;100.00;98727.06;5112990;28;20048;-32
2022/04/07 00:44:27;;;;;;;43.75;7.13;;;;;;;8.75;100.00;98724.97;5113027;28;20100;-29
2022/04/07 00:46:55;;;;;;;37.55;6.10;;;;;;;8.76;100.00;98743.28;5111916;28;20057;-26
2022/04/07 00:49:23;;;;;;;44.15;7.60;;;;;;;8.76;100.00;98726.59;5113125;28;20044;-30
2022/04/07 00:51:54;;;;;;;50.53;7.28;;;;;;;8.73;100.00;98710.56;5112788;27;20048;-26
2022/04/07 00:54:21;;;;;;;43.13;5.90;;;;;;;8.73;100.00;98699.44;5112168;28;20055;-35
2022/04/07 00:56:49;;;;;;;41.97;6.63;;;;;;;8.75;100.00;98702.72;5112795;28;20415;-26
2022/04/07 00:59:18;;;;;;;41.72;6.75;;;;;;;8.76;100.00;98704.34;5112624;28;20050;-32
2022/04/07 01:01:46;;;;;;;42.83;6.00;;;;;;;8.80;100.00;98694.13;5111527;28;20401;-26
2022/04/07 01:04:15;;;;;;;42.17;5.88;;;;;;;8.81;100.00;98685.47;5112726;28;20126;-29
2022/04/07 01:06:43;;;;;;;38.97;6.80;;;;;;;8.82;100.00;98675.16;5111706;28;20583;-29
2022/04/07 01:09:13;;;;;;;40.40;7.00;;;;;;;8.84;100.00;98679.22;5113001;28;20036;-32
2022/04/07 01:11:41;;;;;;;40.22;6.20;;;;;;;8.82;100.00;98678.75;5112381;28;20047;-29
2022/04/07 01:14:09;;;;;;;46.78;6.72;;;;;;;8.84;100.00;98678.41;5111644;28;20496;-28
2022/04/07 01:16:38;;;;;;;45.03;6.38;;;;;;;8.84;100.00;98659.75;5112513;28;20054;-32
2022/04/07 01:19:06;;;;;;;50.58;7.60;;;;;;;8.83;100.00;98685.13;5112500;28;20047;-30
2022/04/07 01:21:36;;;;;;;38.45;5.32;;;;;;;8.86;100.00;98663.00;5111651;28;20058;-30
2022/04/07 01:24:05;;;;;;;44.92;6.90;;;;;;;8.86;100.00;98645.50;5112297;28;20074;-30
2022/04/07 01:26:38;;;;;;;36.90;6.93;;;;;;;8.86;100.00;98637.16;5108497;28;20059;-30
2022/04/07 01:29:06;;;;;;;;;;;;;;;8.82;100.00;98653.72;5112161;28;20046;-28
2022/04/07 01:31:34;;;;;;;42.58;6.22;;;;;;;8.80;100.00;98624.63;5110884;28;19930;-28
2022/04/07 01:34:05;;;;;;;40.22;6.50;;;;;;;8.77;100.00;98605.88;5108326;28;20047;-30
2022/04/07 01:36:37;;;;;;;35.17;5.43;;;;;;;8.79;100.00;98620.25;5111684;28;20492;-28
2022/04/07 01:39:07;;;;;;;40.08;6.63;;;;;;;8.80;100.00;98597.63;5111062;28;20146;-25
2022/04/07 01:41:39;;;;;;;42.47;6.25;;;;;;;8.78;100.00;98588.03;5112027;28;20155;-27
2022/04/07 01:44:09;;;;;;;38.03;5.97;;;;;;;8.78;100.00;98588.84;5112024;28;20496;-28
2022/04/07 01:46:37;;;;;;;40.92;5.82;;;;;;;8.78;100.00;98586.06;5111955;28;20582;-28
2022/04/07 01:49:06;;;;;;;46.20;6.35;;;;;;;8.79;100.00;98567.41;5109151;28;20067;-30
2022/04/07 01:51:36;;;;;;;39.92;6.30;;;;;;;8.79;100.00;98556.28;5112024;28;20090;-27
2022/04/07 01:54:04;;;;;;;35.50;5.53;;;;;;;8.77;100.00;98573.31;5112165;28;20032;-29
2022/04/07 01:56:32;;;;;;;38.92;6.68;;;;;;;8.77;100.00;98572.50;5110942;28;20058;-26
2022/04/07 01:59:01;;;;;;;40.72;6.57;;;;;;;8.82;100.00;98558.34;5111812;28;20250;-27
2022/04/07 02:01:29;;;;;;;46.13;6.05;;;;;;;8.81;100.00;98565.88;5111492;28;20043;-26
2022/04/07 02:03:56;;;;;;;36.42;5.40;;;;;;;8.81;100.00;98540.84;5110521;28;20040;-28
2022/04/07 02:06:25;;;;;;;34.35;5.22;;;;;;;8.79;100.00;98525.69;5111679;28;20143;-30
2022/04/07 02:08:53;;;;;;;37.80;5.57;;;;;;;8.78;100.00;98524.06;5111560;28;20048;-26
2022/04/07 02:11:22;;;;;;;38.65;5.72;;;;;;;8.76;100.00;98499.38;5110626;28;20119;-29
2022/04/07 02:13:50;;;;;;;42.85;6.10;;;;;;;8.75;100.00;98517.22;5110512;28;20051;-26
2022/04/07 02:16:22;;;;;;;35.38;5.68;;;;;;;8.74;100.00;98518.38;5111002;28;20322;-25
2022/04/07 02:18:50;;;;;;;45.03;6.50;;;;;;;8.73;100.00;98502.84;5110569;28;20082;-28
2022/04/07 02:21:18;;;;;;;33.25;5.80;;;;;;;8.77;100.00;98506.56;5111521;28;20059;-26
2022/04/07 02:23:45;;;;;;;35.53;6.20;;;;;;;8.77;100.00;98501.00;5111253;28;20050;-29
2022/04/07 02:26:15;;;;;;;44.40;6.70;;;;;;;8.80;100.00;98499.50;5099443;28;20058;-32
2022/04/07 02:28:44;;;;;;;47.35;7.30;;;;;;;8.81;100.00;98485.25;5111069;28;20036;-31
2022/04/07 02:31:12;;;;;;;35.70;5.57;;;;;;;8.84;100.00;98473.44;5110218;28;20052;-25
2022/04/07 02:33:41;;;;;;;39.58;5.88;;;;;;;8.86;100.00;98481.44;5110161;28;20043;-24
2022/04/07 02:36:09;;;;;;;35.88;6.13;;;;;;;8.84;100.00;98487.34;5111324;28;20047;-29
2022/04/07 02:38:38;;;;;;;38.35;5.28;;;;;;;8.87;100.00;98471.94;5109926;28;20497;-27
2022/04/07 02:41:06;;;;;;;38.95;6.72;;;;;;;8.89;100.00;98470.44;5111141;28;20062;-27
2022/04/07 02:43:34;;;;;;;46.05;7.20;;;;;;;8.86;100.00;98487.00;5110731;28;20523;-29
2022/04/07 02:46:01;;;;;;;40.85;6.32;;;;;;;8.85;100.00;98463.94;5110174;28;20059;-29
2022/04/07 02:48:29;;;;;;;39.35;5.97;;;;;;;8.82;100.00;98475.75;5111104;28;20035;-28
2022/04/07 02:50:58;;;;;;;39.72;6.35;;;;;;;8.82;100.00;98450.72;5110948;28;20047;-32
2022/04/07 02:53:26;;;;;;;44.67;7.18;;;;;;;8.84;100.00;98456.75;5102997;28;20047;-27
2022/04/07 02:55:54;;;;;;;42.83;6.53;;;;;;;8.84;100.00;98428.94;5110640;28;20128;-30
2022/04/07 02:58:21;;;;;;;42.63;7.00;;;;;;;8.90;100.00;98432.31;5110741;28;20047;-26
2022/04/07 03:00:49;;;;;;;40.47;6.25;;;;;;;8.91;100.00;98420.84;5110022;28;20046;-28
2022/04/07 03:03:17;;;;;;;39.95;6.38;;;;;;;8.88;100.00;98421.53;5110734;28;20039;-29
2022/04/07 03:05:45;;;;;;;46.78;6.40;;;;;;;8.89;100.00;98408.44;5110610;28;20069;-28
2022/04/07 03:08:15;;;;;;;46.70;7.03;;;;;;;8.84;100.00;98401.13;5109815;28;20044;-30
2022/04/07 03:10:42;;;;;;;43.72;6.28;;;;;;;8.86;100.00;98414.69;5111237;28;20079;-28
2022/04/07 03:13:10;;;;;;;44.30;7.57;;;;;;;8.87;100.00;98396.84;5110098;28;20040;-27
2022/04/07 03:15:38;;;;;;;55.28;7.95;;;;;;;8.85;100.00;98397.19;5099571;28;20063;-25
2022/04/07 03:18:06;;;;;;;45.97;7.00;;;;;;;8.87;100.00;98383.75;5110667;28;20130;-26
2022/04/07 03:20:34;;;;;;;43.63;7.47;;;;;;;8.87;100.00;98399.63;5109762;28;20047;-27
2022/04/07 03:23:01;;;;;;;44.95;7.50;;;;;;;8.84;100.00;98386.41;5110400;28;20085;-29
2022/04/07 03:25:30;;;;;;;57.28;7.95;;;;;;;8.84;100.00;98375.28;5114356;28;20047;-28
2022/04/07 03:27:58;;;;;;;58.95;8.73;;;;;;;8.81;100.00;98378.75;5112899;28;20051;-29
2022/04/07 03:30:26;;;;;;;55.85;8.90;;;;;;;8.81;100.00;98379.56;5114392;28;20039;-28
2022/04/07 03:32:54;;;;;;;57.55;7.95;;;;;;;8.79;100.00;98342.19;5114534;28;20039;-29
2022/04/07 03:35:21;;;;;;;52.40;8.10;;;;;;;8.81;100.00;98351.75;5113519;28;20050;-25
2022/04/07 03:37:50;;;;;;;54.45;8.02;;;;;;;8.83;100.00;98334.72;5114385;28;20063;-30
2022/04/07 03:40:18;;;;;;;54.13;8.50;;;;;;;8.84;100.00;98337.16;5114113;28;20520;-31
2022/04/07 03:42:47;;;;;;;50.20;7.88;;;;;;;8.82;100.00;98324.78;5113438;28;20043;-30
2022/04/07 03:45:15;;;;;;;52.35;8.43;;;;;;;8.83;100.00;98315.28;5114138;28;20058;-31
2022/04/07 03:47:42;;;;;;;55.50;8.10;;;;;;;8.83;100.00;98312.50;5114098;28;20051;-27
2022/04/07 03:50:10;;;;;;;46.60;7.82;;;;;;;8.86;100.00;98303.44;5113174;27;20391;-24
2022/04/07 03:52:38;;;;;;;48.72;7.15;;;;;;;8.86;100.00;98273.66;5112513;28;20047;-26
2022/04/07 03:55:07;;;;;;;55.00;8.25;;;;;;;8.84;100.00;98277.97;5112299;27;20031;-29
2022/04/07 03:57:35;;;;;;;53.55;7.55;;;;;;;8.83;100.00;98279.13;5111467;28;20043;-32
2022/04/07 04:00:05;;;;;;;48.67;7.65;;;;;;;8.77;100.00;98300.00;5112813;28;20054;-28
2022/04/07 04:02:39;;;;;;;45.25;6.53;;;;;;;8.63;100.00;98320.63;5111803;28;20151;-28
2022/04/07 04:05:07;;;;;;;41.40;5.63;;;;;;;8.51;100.00;98328.16;5112806;28;20050;-27
2022/04/07 04:07:36;;;;;;;32.22;5.45;;;;;;;8.38;100.00;98316.25;5112574;28;20065;-26
2022/04/07 04:10:06;;;;;;;17.63;3.08;;;;;;;8.19;100.00;98313.19;5113172;28;20101;-33
2022/04/07 04:12:33;;;;;;;19.20;2.90;;;;;;;8.12;100.00;98312.94;5113730;28;20048;-29
2022/04/07 04:15:02;;;;;;;18.60;2.85;;;;;;;7.93;100.00;98322.63;5112818;28;20157;-29
2022/04/07 04:17:31;;;;;;;21.70;2.80;;;;;;;7.82;100.00;98315.88;5101356;28;20048;-26
2022/04/07 04:20:00;;;;;;;19.45;2.60;;;;;;;7.66;100.00;98317.69;5102212;28;20517;-28
2022/04/07 04:22:28;;;;;;;15.23;2.15;;;;;;;7.52;100.00;98325.50;5113573;28;20047;-30
2022/04/07 04:24:56;;;;;;;12.10;1.75;;;;;;;7.33;100.00;98312.16;5112958;28;20404;-29
2022/04/07 04:27:24;;;;;;;15.43;2.00;;;;;;;7.18;100.00;98324.69;5113118;28;20059;-30
2022/04/07 04:29:51;;;;;;;12.18;1.63;;;;;;;7.12;100.00;98319.66;5112065;28;20409;-32
2022/04/07 04:32:19;;;;;;;10.75;1.40;;;;;;;6.98;100.00;98325.50;5112532;28;20046;-29
2022/04/07 04:34:49;;;;;;;9.95;1.40;;;;;;;6.80;100.00;98301.78;5113200;28;20039;-30
2022/04/07 04:37:16;;;;;;;14.52;1.92;;;;;;;6.69;100.00;98300.56;5110135;28;20151;-27
2022/04/07 04:39:44;;;;;;;17.65;2.90;;;;;;;6.65;100.00;98289.34;5109560;28;20075;-27
2022/04/07 04:42:12;;;;;;;14.55;1.55;;;;;;;6.57;100.00;98288.28;5112208;28;20501;-30
2022/04/07 04:44:39;;;;;;;14.63;1.73;;;;;;;6.52;100.00;98277.38;5111122;28;20051;-31
2022/04/07 04:47:08;;;;;;;12.20;1.63;;;;;;;6.49;100.00;98272.50;5111783;27;20055;-31
2022/04/07 04:49:35;;;;;;;17.98;1.65;;;;;;;6.54;100.00;98264.00;5110497;28;20135;-28
2022/04/07 04:52:05;;;;;;;11.63;1.48;;;;;;;6.55;100.00;98231.56;5111538;28;20036;-29
2022/04/07 04:54:34;;;;;;;8.25;1.20;;;;;;;6.55;100.00;98223.25;5111815;28;20146;-32
2022/04/07 04:57:01;;;;;;;13.88;1.73;;;;;;;6.51;100.00;98217.59;5111776;28;20437;-31
2022/04/07 04:59:29;;;;;;;17.58;2.17;;;;;;;6.49;100.00;98197.72;5110920;28;20057;-26
2022/04/07 05:01:57;;;;;;;21.15;2.10;;;;;;;6.50;100.00;98202.09;5111891;28;20047;-29
2022/04/07 05:04:25;;;;;;;17.15;2.15;;;;;;;6.47;100.00;98197.25;5111685;28;20100;-27
2022/04/07 05:06:53;;;;;;;20.63;2.75;;;;;;;6.45;100.00;98182.09;5111128;28;20058;-29
2022/04/07 05:09:22;;;;;;;23.17;2.42;;;;;;;6.45;100.00;98148.84;5109343;28;20040;-23
2022/04/07 05:11:50;;;;;;;24.52;3.03;;;;;;;6.37;100.00;98180.22;5111648;28;20146;-29
2022/04/07 05:14:18;;;;;;;20.90;2.70;;;;;;;6.38;100.00;98157.72;5110643;28;20047;-25
2022/04/07 05:16:53;;;;;;;18.17;2.50;;;;;;;6.42;100.00;98161.41;5105636;28;20100;-27
2022/04/07 05:19:21;;;;;;;25.60;2.80;;;;;;;6.42;100.00;98155.88;5107701;28;20109;-30
2022/04/07 05:21:50;;;;;;;13.75;1.98;;;;;;;6.42;100.00;98150.34;5110303;28;20039;-28
2022/04/07 05:24:18;;;;;;;19.60;2.47;;;;;;;6.39;100.00;98170.44;5112190;28;20063;-33
2022/04/07 05:26:47;;;;;;;23.80;2.50;;;;;;;6.42;100.00;98178.03;5110542;27;20047;-29
2022/04/07 05:29:15;;;;;;;17.00;1.90;;;;;;;6.45;100.00;98179.31;5112157;28;20067;-26
2022/04/07 05:31:43;;;;;;;15.15;2.30;;;;;;;6.50;100.00;98171.63;5111310;27;20135;-29
2022/04/07 05:34:13;;;;;;;18.75;2.10;;;;;;;6.55;100.00;98132.66;5109376;28;20044;-28
2022/04/07 05:36:42;;;;;;;15.52;2.38;;;;;;;6.61;100.00;98124.09;5110130;28;20051;-32
2022/04/07 05:39:09;;;;;;;19.02;2.30;;;;;;;6.58;100.00;98122.84;5110163;28;20074;-27
2022/04/07 05:41:37;;;;;;;18.65;2.55;;;;;;;6.57;100.00;98149.75;5109291;28;20111;-27
2022/04/07 05:44:07;;;;;;;17.77;2.35;;;;;;;6.60;100.00;98142.69;5101555;28;20405;-26
2022/04/07 05:46:34;;;;;;;22.58;2.40;;;;;;;6.66;100.00;98135.00;5110039;28;20142;-33
2022/04/07 05:49:02;;;;;;;15.98;1.98;;;;;;;6.64;100.00;98132.56;5110500;28;20108;-30
2022/04/07 05:51:30;;;;;;;16.00;2.63;;;;;;;6.68;100.00;98116.06;5112320;28;20032;-31
2022/04/07 05:53:58;;;;;;;18.05;2.67;;;;;;;6.70;100.00;98108.22;5111791;28;20480;-24
2022/04/07 05:56:25;;;;;;;17.15;2.20;;;;;;;6.71;100.00;98124.50;5110885;28;20036;-26
2022/04/07 05:58:54;;;;;;;14.77;2.50;;;;;;;6.74;100.00;98104.44;5111595;28;20342;-29
2022/04/07 06:01:30;;;;;;;16.65;2.25;;;;;;;6.79;100.00;98126.41;5111414;28;20549;-28
2022/04/07 06:03:58;;;;;;;15.88;2.10;;;;;;;6.83;100.00;98110.69;5110939;28;20043;-29
2022/04/07 06:06:26;;;;;;;16.77;2.53;;;;;;;6.86;100.00;98098.09;5111637;28;20126;-31
2022/04/07 06:08:54;;;;;;;21.65;2.92;;;;;;;6.90;100.00;98082.41;5111257;28;20043;-28
2022/04/07 06:11:22;;;;;;;17.23;2.70;;;;;;;6.94;100.00;98075.03;5111535;28;20048;-26
2022/04/07 06:13:50;;;;;;;17.90;2.45;;;;;;;7.00;100.00;98079.19;5109957;28;20048;-29
2022/04/07 06:16:18;;;;;;;21.17;2.35;;;;;;;7.03;100.00;98072.97;5110765;28;20044;-30
2022/04/07 06:18:47;;;;;;;20.65;2.33;;;;;;;7.11;100.00;98069.28;5111576;28;20054;-30
2022/04/07 06:21:15;;;;;;;25.70;3.42;;;;;;;7.17;100.00;98084.56;5110301;28;20114;-27
2022/04/07 06:23:42;;;;;;;14.07;2.65;;;;;;;7.23;100.00;98072.06;5110725;28;20117;-30
2022/04/07 06:26:10;;;;;;;17.25;2.50;;;;;;;7.30;100.00;98071.50;5111170;28;20427;-27
2022/04/07 06:28:40;;;;;;;15.30;3.05;;;;;;;7.35;100.00;98070.47;5111080;28;20054;-28
2022/04/07 06:31:07;;;;;;;14.63;2.00;;;;;;;7.38;100.00;98053.13;5110562;28;20124;-33
2022/04/07 06:33:35;;;;;;;17.52;2.70;;;;;;;7.43;100.00;98061.22;5111075;28;20044;-32
2022/04/07 06:36:24;;;;;;;22.80;3.35;;;;;;;7.50;100.00;98053.13;5110976;28;20047;-31
2022/04/07 06:38:52;;;;;;;18.38;2.53;;;;;;;7.54;100.00;98043.75;5110095;28;20100;-27
2022/04/07 06:41:20;;;;;;;20.33;3.72;;;;;;;7.58;100.00;98052.22;5111350;28;20047;-27
2022/04/07 06:43:50;;;;;;;18.67;2.97;;;;;;;7.60;100.00;98069.28;5110891;28;20131;-24
2022/04/07 06:46:18;;;;;;;25.67;3.95;;;;;;;7.65;100.00;98062.69;5110140;28;20138;-24
2022/04/07 06:48:45;;;;;;;16.00;2.60;;;;;;;7.69;100.00;98063.63;5110914;28;20057;-25
2022/04/07 06:51:14;;;;;;;20.85;2.85;;;;;;;7.80;100.00;98062.78;5110505;28;20514;-29
2022/04/07 06:53:43;;;;;;;19.35;3.42;;;;;;;7.96;100.00;98049.03;5110850;28;20048;-30
2022/04/07 06:56:11;;;;;;;13.82;2.30;;;;;;;8.18;100.00;98047.69;5110806;28;20046;-30
2022/04/07 06:58:38;;;;;;;17.48;2.65;;;;;;;8.50;100.00;98052.22;5109625;28;20043;-24
2022/04/07 07:01:06;;;;;;;18.00;2.75;;;;;;;8.74;100.00;98056.03;5110696;28;20096;-26
2022/04/07 07:03:34;;;;;;;19.55;2.90;;;;;;;8.91;100.00;98056.53;5110624;28;20040;-25
2022/04/07 07:06:02;;;;;;;20.90;2.90;;;;;;;9.03;100.00;98050.06;5108268;28;20046;-33
2022/04/07 07:08:30;;;;;;;15.50;2.78;;;;;;;9.07;100.00;98050.16;5110645;28;20516;-31
2022/04/07 07:10:59;;;;;;;18.73;2.97;;;;;;;9.04;100.00;98040.56;5110767;28;20066;-27
2022/04/07 07:13:26;;;;;;;16.67;2.70;;;;;;;9.04;100.00;98040.56;5109791;28;20052;-29
2022/04/07 07:15:55;;;;;;;17.08;2.80;;;;;;;8.91;100.00;98042.63;5110452;28;20074;-29
2022/04/07 07:18:23;;;;;;;21.80;2.80;;;;;;;8.79;100.00;98039.09;5109100;28;20039;-27
2022/04/07 07:20:51;;;;;;;13.80;2.40;;;;;;;8.67;100.00;98048.31;5110210;28;20135;-31
2022/04/07 07:23:19;;;;;;;15.05;3.00;;;;;;;8.62;100.00;98027.13;5110485;28;20481;-26
2022/04/07 07:25:47;;;;;;;15.88;2.08;;;;;;;8.49;100.00;98036.69;5110620;28;20048;-26
2022/04/07 07:28:16;;;;;;;18.92;2.65;;;;;;;8.43;100.00;98040.88;5109755;28;20043;-33
2022/04/07 07:30:44;;;;;;;15.20;2.20;;;;;;;8.33;100.00;98023.94;5110318;28;20497;-28
2022/04/07 07:33:11;;;;;;;19.05;2.60;;;;;;;8.27;100.00;98031.66;5110288;28;20131;-27
2022/04/07 07:35:42;;;;;;;19.45;2.85;;;;;;;8.29;100.00;98018.22;5109724;28;20127;-26
2022/04/07 07:38:10;;;;;;;15.50;2.53;;;;;;;8.26;100.00;98033.63;5110549;28;20400;-27
2022/04/07 07:40:38;;;;;;;22.10;3.70;;;;;;;8.31;100.00;98027.03;5109512;28;20238;-27
2022/04/07 07:43:06;;;;;;;15.45;3.08;;;;;;;8.34;100.00;98014.44;5110458;28;20058;-30
2022/04/07 07:45:36;;;;;;;17.02;2.75;;;;;;;8.39;100.00;98020.56;5110042;28;20047;-26
2022/04/07 07:48:23;;;;;;;17.00;2.80;;;;;;;8.42;100.00;98010.69;5103504;28;20070;-28
2022/04/07 07:50:51;;;;;;;19.02;2.92;;;;;;;8.44;100.00;98006.38;5110115;28;20039;-31
2022/04/07 07:53:19;;;;;;;21.38;3.05;;;;;;;8.57;100.00;98013.50;5110285;28;20168;-31
2022/04/07 07:55:49;;;;;;;20.45;2.88;;;;;;;8.74;100.00;98001.25;5109150;28;20039;-31
2022/04/07 07:58:17;;;;;;;17.98;3.00;;;;;;;8.91;100.00;97997.31;5109946;28;20039;-28
2022/04/07 08:00:46;;;;;;;24.70;3.50;;;;;;;9.05;100.00;97988.50;5110382;28;20094;-26
2022/04/07 08:03:14;;;;;;;20.35;3.10;;;;;;;9.39;100.00;97989.75;5109478;28;20040;-30
2022/04/07 08:05:42;;;;;;;13.25;2.22;;;;;;;9.62;100.00;97990.66;5108691;28;20048;-30
2022/04/07 08:08:11;;;;;;;18.58;3.00;;;;;;;9.95;100.00;97982.69;5110110;28;20039;-33
2022/04/07 08:10:38;;;;;;;16.52;2.40;;;;;;;10.26;100.00;97980.94;5109767;28;20047;-28
2022/04/07 08:13:06;;;;;;;13.20;2.53;;;;;;;10.51;100.00;97976.66;5113795;28;20051;-30
2022/04/07 08:15:34;;;;;;;18.83;2.88;;;;;;;10.76;100.00;97984.69;5112785;28;20043;-27
2022/04/07 08:18:04;;;;;;;13.43;2.50;;;;;;;10.82;100.00;97986.78;5113876;28;20052;-28
2022/04/07 08:20:31;;;;;;;13.90;2.20;;;;;;;10.67;100.00;97969.00;5113573;28;20075;-29
2022/04/07 08:22:59;;;;;;;19.95;3.15;;;;;;;10.60;100.00;97985.59;5112600;28;20039;-27
2022/04/07 08:25:27;;;;;;;15.38;2.67;;;;;;;10.70;100.00;97979.41;5113523;28;20044;-26
2022/04/07 08:27:55;;;;;;;14.82;2.65;;;;;;;10.91;100.00;97976.22;5113804;28;20044;-27
2022/04/07 08:30:22;;;;;;;14.57;2.63;;;;;;;11.33;100.00;97978.91;5112845;27;20062;-31
2022/04/07 08:32:50;;;;;;;11.68;2.05;;;;;;;11.63;96.52;97980.94;5112411;28;20408;-30
2022/04/07 08:35:19;;;;;;;13.45;2.58;;;;;;;11.81;93.35;97973.66;5113337;28;20044;-29
2022/04/07 08:37:47;;;;;;;14.48;2.63;;;;;;;11.96;93.50;97975.47;5112644;28;20056;-25
2022/04/07 08:40:17;;;;;;;14.40;2.80;;;;;;;11.73;90.42;97972.75;5113529;28;20047;-27
2022/04/07 08:42:44;;;;;;;17.38;2.83;;;;;;;11.44;91.72;97989.44;5113121;28;20159;-30
2022/04/07 08:45:12;;;;;;;17.38;2.67;;;;;;;11.12;93.51;97975.78;5112370;28;20059;-27
2022/04/07 08:47:41;;;;;;;16.92;3.00;;;;;;;10.82;95.23;97988.78;5113154;28;20100;-30
2022/04/07 08:50:13;;;;;;;15.98;2.90;;;;;;;10.44;95.77;97998.81;5112943;28;20061;-23
2022/04/07 08:52:42;;;;;;;;;;;;;;;10.18;97.02;97984.75;5112868;28;20048;-28
2022/04/07 08:55:10;;;;;;;15.60;2.58;;;;;;;9.96;99.04;97981.50;5112994;28;19959;-30
2022/04/07 08:57:40;;;;;;;13.57;2.72;;;;;;;9.85;99.95;97977.69;5112734;28;20631;-27
2022/04/07 09:00:09;;;;;;;20.08;2.72;;;;;;;9.74;100.00;97990.56;5112604;28;20571;-30
2022/04/07 09:02:36;;;;;;;14.70;2.65;;;;;;;9.69;100.00;98001.97;5112552;28;20055;-27
2022/04/07 09:05:10;;;;;;;14.40;2.80;;;;;;;9.69;100.00;98010.34;5112146;28;20467;-32
2022/04/07 09:07:38;;;;;;;18.98;3.38;;;;;;;9.68;100.00;98011.50;5112646;28;20556;-26
2022/04/07 09:10:09;;;;;;;15.95;2.75;;;;;;;9.77;100.00;97987.06;5112709;28;20428;-27
2022/04/07 09:12:38;;;;;;;15.23;2.72;;;;;;;9.83;100.00;97993.13;5111967;28;20044;-28
2022/04/07 09:15:08;;;;;;;14.07;2.53;;;;;;;9.81;100.00;97982.34;5112362;28;20047;-25
2022/04/07 09:17:50;;;;;;;18.45;3.17;;;;;;;9.81;100.00;97990.72;5112520;28;20078;-26
2022/04/07 09:20:19;;;;;;;15.77;3.33;;;;;;;9.78;100.00;98016.53;5111837;28;20094;-26
2022/04/07 09:22:55;;;;;;;14.52;3.08;;;;;;;9.74;100.00;98007.28;5111957;28;20116;-24
2022/04/07 09:25:25;;;;;;;21.42;3.15;;;;;;;9.71;100.00;97996.06;5112392;27;20040;-35
2022/04/07 09:27:57;;;;;;;16.23;3.10;;;;;;;9.66;100.00;98014.66;5111525;28;20118;-27
2022/04/07 09:30:25;;;;;;;18.42;3.05;;;;;;;9.62;100.00;98002.63;5102350;28;20116;-29
2022/04/07 09:32:53;;;;;;;14.23;3.15;;;;;;;9.62;100.00;97990.66;5111723;28;20043;-29
2022/04/07 09:35:21;;;;;;;19.27;3.00;;;;;;;9.64;100.00;97991.13;5112124;28;20126;-34
2022/04/07 09:37:49;;;;;;;18.58;3.13;;;;;;;9.57;100.00;98008.50;5111886;28;20493;-25
2022/04/07 09:40:18;;;;;;;21.27;3.42;;;;;;;9.57;100.00;97993.75;5111127;28;20453;-31
2022/04/07 09:42:57;;;;;;;19.10;3.20;;;;;;;9.59;100.00;97985.84;5111906;27;20052;-28
2022/04/07 09:45:26;;;;;;;22.10;3.30;;;;;;;9.61;100.00;97997.41;5112243;28;20122;-28
2022/04/07 09:47:54;;;;;;;19.98;3.33;;;;;;;9.60;100.00;97993.81;5111152;28;20052;-27
2022/04/07 09:50:23;;;;;;;20.98;3.30;;;;;;;9.68;100.00;97986.44;5111641;28;20416;-31
2022/04/07 09:52:58;;;;;;;20.58;3.35;;;;;;;9.77;100.00;97992.63;5110548;28;20496;-24
2022/04/07 09:55:28;;;;;;;19.85;3.70;;;;;;;9.78;100.00;97987.88;5111004;28;20056;-25
2022/04/07 09:57:59;;;;;;;17.83;3.58;;;;;;;9.91;100.00;97981.78;5111636;28;20097;-29
2022/04/07 10:00:27;;;;;;;18.35;2.83;;;;;;;10.13;100.00;97985.84;5111688;27;20138;-27
2022/04/07 10:02:56;;;;;;;20.45;3.67;;;;;;;10.48;99.29;97988.56;5110802;28;20043;-29
2022/04/07 10:05:24;;;;;;;19.10;3.70;;;;;;;10.82;98.03;97986.78;5111610;28;20159;-32
2022/04/07 10:07:53;;;;;;;20.83;3.85;;;;;;;10.94;95.92;97995.00;5104627;28;20080;-31
2022/04/07 10:10:21;;;;;;;18.25;3.35;;;;;;;10.84;95.25;97978.88;5110557;28;20051;-26
2022/04/07 10:12:51;;;;;;;20.58;3.00;;;;;;;10.75;95.38;97986.69;5111751;28;20055;-31
2022/04/07 10:15:21;;;;;;;17.67;3.50;;;;;;;10.81;95.82;97981.59;5110645;28;20400;-25
2022/04/07 10:17:49;;;;;;;22.20;3.10;;;;;;;10.66;93.20;97991.69;5111494;28;20160;-25
2022/04/07 10:20:30;;;;;;;18.98;3.50;;;;;;;10.47;92.87;97980.56;5111769;27;20043;-27
2022/04/07 10:23:08;;;;;;;22.77;3.40;;;;;;;10.30;94.00;97976.25;5110743;28;20050;-26
2022/04/07 10:25:43;;;;;;;19.25;3.63;;;;;;;10.25;95.53;97996.84;5111348;28;20403;-32
2022/04/07 10:28:11;;;;;;;17.25;3.47;;;;;;;10.17;94.40;97983.13;5111121;28;20089;-31
2022/04/07 10:30:49;;;;;;;18.15;3.05;;;;;;;10.08;95.08;97988.91;5110502;28;20061;-33
2022/04/07 10:33:34;;;;;;;17.13;2.65;;;;;;;10.15;95.77;97975.13;5110482;28;20035;-27
2022/04/07 10:36:08;;;;;;;18.00;3.13;;;;;;;10.14;95.28;97990.25;5109675;28;20047;-27
2022/04/07 10:38:37;;;;;;;16.95;3.53;;;;;;;10.13;95.04;97959.97;5110234;28;20124;-27
2022/04/07 10:41:05;;;;;;;21.77;3.72;;;;;;;10.15;94.90;97958.41;5111182;28;20123;-29
2022/04/07 10:43:38;;;;;;;19.77;3.53;;;;;;;10.11;92.91;97979.03;5110318;28;20070;-33
2022/04/07 10:46:11;;;;;;;;;;;;;;;10.01;92.34;97952.53;5111345;28;20036;-28
2022/04/07 10:48:44;;;;;;;17.60;2.78;;;;;;;10.02;93.21;97968.88;5110981;28;19923;-25
2022/04/07 10:51:13;;;;;;;20.92;3.20;;;;;;;10.12;93.29;97955.56;5110202;28;20046;-28
2022/04/07 10:54:00;;;;;;;25.38;3.28;;;;;;;10.16;92.82;97971.19;5111016;28;20134;-28
2022/04/07 10:56:32;;;;;;;19.23;3.05;;;;;;;10.34;91.95;97944.50;5110895;28;20044;-31
2022/04/07 10:59:12;;;;;;;27.08;3.70;;;;;;;10.64;91.47;97961.38;5110000;28;20050;-25
2022/04/07 11:02:03;;;;;;;20.80;3.03;;;;;;;10.91;87.89;97956.69;5111205;28;20055;-28
2022/04/07 11:04:36;;;;;;;21.65;3.58;;;;;;;11.14;88.79;97951.09;5110008;28;20036;-27
2022/04/07 11:07:17;;;;;;;17.27;2.97;;;;;;;11.30;87.29;97954.53;5111006;28;20507;-29
2022/04/07 11:10:11;;;;;;;21.40;3.30;;;;;;;11.25;85.71;97954.84;5110728;28;20054;-28
2022/04/07 11:12:43;;;;;;;17.65;3.22;;;;;;;11.13;85.39;97957.03;5109883;28;20294;-32
2022/04/07 11:15:16;;;;;;;;;;;;;;;10.99;86.08;97935.31;5104863;28;20138;-27
2022/04/07 11:17:53;;;;;;;18.33;3.33;;;;;;;11.01;87.67;97952.44;5110391;28;19919;-32
2022/04/07 11:20:22;;;;;;;21.40;4.15;;;;;;;11.08;87.46;97947.00;5103717;28;20453;-26
2022/04/07 11:22:55;;;;;;;14.05;2.83;;;;;;;10.91;87.52;97967.03;5110307;28;20417;-30
2022/04/07 11:25:25;;;;;;;14.73;2.90;;;;;;;10.55;91.19;97977.56;5110645;28;20371;-28
2022/04/07 11:28:11;;;;;;;20.20;3.70;;;;;;;10.25;96.90;98035.88;5110538;28;20139;-28
2022/04/07 11:30:41;;;;;;;16.50;2.38;;;;;;;9.85;98.77;98007.50;5103585;28;20114;-26
2022/04/07 11:33:28;;;;;;;27.55;4.13;;;;;;;9.43;100.00;97976.72;5109561;28;20051;-29
2022/04/07 11:36:37;;;;;;;15.45;3.03;;;;;;;9.38;100.00;97996.50;5104423;28;20044;-28
2022/04/07 11:39:11;;;;;;;19.60;3.78;;;;;;;9.42;100.00;97984.25;5109576;28;20052;-27